Sparta, WI

8:37 AM CDT on August 29, 2014 (GMT -0500)
Sparta-Fort McCoy | Change Station
CLOSE
Current Station
Airport
Location: Sparta,
Elevation: 837 ft
Nearby Weather Stations

Elev 837 ft 43.96 °N, 90.74 °W | Updated 22 minutes ago

Scattered Clouds
Scattered Clouds
65 °F
Feels Like 65 °F
N
4
Wind Variable Wind from East

Today
High -- | Low -- °F
--% Chance of Precip.
Yesterday
High -- | Low -- °F
Precip. -- in
6:23 AM 7:44 PM
Waxing Crescent, 14% visible
Pressure 29.89 in
Visibility 7.0 miles
Clouds Scattered Clouds 700 ft
Scattered Clouds 10000 ft
Dew Point 63 °F
Humidity 94%
Rainfall 0.00 in
Snow Depth Not available.
UV 1 out of 12
Pollen 1.10 out of 12
Air Quality Not available.
Flu Activity Not available.
METAR KCMY 291315Z AUTO 10003KT 7SM SCT007 SCT100 18/17 A2989 RMK AO2 LTG DSNT SE T01830173

More Conditions Fewer Conditions

Pressure 29.89 in
Visibility 7.0 miles
Clouds Scattered Clouds 700 ft
Scattered Clouds 10000 ft
Dew Point 63 °F
Humidity 94%
Rainfall 0.00 in
Snow Depth Not available.
UV 1 out of 12
Pollen 1.10 out of 12
Air Quality Not available.
Flu Activity Not available.
METAR KCMY 291315Z AUTO 10003KT 7SM SCT007 SCT100 18/17 A2989 RMK AO2 LTG DSNT SE T01830173

More Conditions Fewer Conditions

10-Day Weather Forecast

Almanac

Astronomy

Aug. 29, 2014 Rise Set
Actual Time 6:23 AM CDT 7:44 PM CDT
Civil Twilight 5:53 AM CDT 8:14 PM CDT
Nautical Twilight 5:17 AM CDT 8:50 PM CDT
Astronomical Twilight 4:38 AM CDT 9:28 PM CDT
Moon 10:22 AM CDT 9:32 PM CDT
Length of Visible Light 14h 20m
Length of Day
13h 21m
Tomorrow will be 2m 53s shorter.
Waxing Crescent, 14% of the Moon is Illuminated
Today
Waxing Crescent
Sep 2
First Quarter
Sep 8
Full
Sep 15
Last Quarter
Sep 24
New

Today's Extremes

State Highs State Lows

Community

WunderPhotos

Upload Photos

1,748,229 photos uploaded!

Nearby

Snow Depth

Station Depth Elevation
No new snow has been reported.

Earthquake Activity

City Distance Mag. Time & Date
No recent earthquake activity has been reported nearby.
Minimum magnitude displayed is 2.5.

Coastal Water Temperatures

Place Temperature
No Stations Reporting

Nearby Weather Stations